Broadmoor Village, California
Current Conditions -  °F | °C
As of 8:56 PM on Sunday 19 Oct 2014 (Local Time) from KSFO Reporting Station
Scattered Clouds Scattered Clouds  
Wind Chill: 67°   Ceiling: Unl
Heat Index: 67°   Visibility: 10mi
Dew Point: 59°   Wind: 7mph
Humidity: 76%   Direction: 270°W
Pressure: 29.9"   Gusts: NA
Location:  37.6817°N, 122.48°W
Report Text: KSFO 200356Z 27006KT 10SM FEW013 SCT018 19/15 A2990 RMK AO2 SLP124 T01940150
Loading
Personal Weather Stations






























Interactive Weather Map
Tropical Storm Tracking
New forecast layout! Learn more

10-Day Weather Forecast

Advertisements
Track Severe Weather on mobile